createdAt,value
2022-07-31T00:00:16.822Z,19.03
2022-07-31T00:02:43.469Z,18.97
2022-07-31T00:05:11.067Z,18.80
2022-07-31T00:07:37.675Z,18.70
2022-07-31T00:10:05.514Z,18.68
2022-07-31T00:12:32.497Z,18.66
2022-07-31T00:14:59.000Z,18.65
2022-07-31T00:17:25.686Z,18.81
2022-07-31T00:19:52.412Z,18.79
2022-07-31T00:22:19.107Z,18.67
2022-07-31T00:24:45.815Z,18.64
2022-07-31T00:27:12.695Z,18.69
2022-07-31T00:29:39.855Z,18.88
2022-07-31T00:32:06.762Z,19.09
2022-07-31T00:34:33.642Z,19.24
2022-07-31T00:37:00.466Z,19.26
2022-07-31T00:39:27.541Z,19.29
2022-07-31T00:41:54.368Z,19.34
2022-07-31T00:44:21.005Z,19.31
2022-07-31T00:46:48.056Z,19.35
2022-07-31T00:49:16.102Z,19.43
2022-07-31T00:51:42.875Z,19.53
2022-07-31T00:54:10.203Z,19.38
2022-07-31T00:56:49.165Z,19.28
2022-07-31T00:59:15.737Z,19.18
2022-07-31T01:01:42.348Z,19.03
2022-07-31T01:04:09.097Z,18.91
2022-07-31T01:06:42.849Z,18.88
2022-07-31T01:09:09.509Z,18.74
2022-07-31T01:11:44.893Z,18.64
2022-07-31T01:14:12.849Z,18.75
2022-07-31T01:16:44.834Z,18.96
2022-07-31T01:19:43.328Z,19.10
2022-07-31T01:22:35.347Z,19.13
2022-07-31T01:25:40.712Z,18.85
2022-07-31T01:28:10.360Z,18.53
2022-07-31T01:30:43.526Z,18.48
2022-07-31T01:33:14.814Z,18.72
2022-07-31T01:35:45.786Z,19.06
2022-07-31T01:38:16.134Z,19.26
2022-07-31T01:40:47.508Z,19.30
2022-07-31T01:43:25.926Z,19.29
2022-07-31T01:45:58.214Z,19.28
2022-07-31T01:48:26.790Z,19.30
2022-07-31T01:50:58.335Z,19.27
2022-07-31T01:53:26.629Z,19.16
2022-07-31T01:56:01.872Z,19.09
2022-07-31T01:58:35.298Z,18.78
2022-07-31T02:01:04.682Z,18.58
2022-07-31T02:03:44.389Z,18.73
2022-07-31T02:06:18.184Z,18.94
2022-07-31T02:08:50.828Z,19.05
2022-07-31T02:11:20.191Z,19.02
2022-07-31T02:13:48.271Z,18.92
2022-07-31T02:16:17.427Z,18.88
2022-07-31T02:18:44.153Z,18.83
2022-07-31T02:21:10.897Z,18.77
2022-07-31T02:23:38.415Z,18.75
2022-07-31T02:26:06.841Z,18.69
2022-07-31T02:28:36.970Z,18.40
2022-07-31T02:31:05.148Z,18.28
2022-07-31T02:33:32.854Z,18.16
2022-07-31T02:36:00.664Z,18.10
2022-07-31T02:38:28.452Z,18.11
2022-07-31T02:41:01.581Z,17.97
2022-07-31T02:43:30.589Z,17.85
2022-07-31T02:45:58.488Z,17.63
2022-07-31T02:48:25.673Z,17.67
2022-07-31T02:50:53.342Z,17.85
2022-07-31T02:53:20.872Z,17.97
2022-07-31T02:55:48.062Z,17.98
2022-07-31T02:58:14.613Z,17.97
2022-07-31T03:00:41.642Z,17.97
2022-07-31T03:03:08.433Z,17.94
2022-07-31T03:05:35.350Z,17.94
2022-07-31T03:08:01.874Z,17.90
2022-07-31T03:10:28.571Z,17.96
2022-07-31T03:12:56.304Z,18.06
2022-07-31T03:15:25.691Z,18.07
2022-07-31T03:17:54.535Z,18.04
2022-07-31T03:20:21.866Z,18.00
2022-07-31T03:22:48.904Z,17.91
2022-07-31T03:25:21.163Z,17.76
2022-07-31T03:27:55.053Z,17.71
2022-07-31T03:30:24.539Z,17.77
2022-07-31T03:32:52.212Z,17.83
2022-07-31T03:35:19.646Z,17.91
2022-07-31T03:37:46.519Z,17.97
2022-07-31T03:40:13.782Z,17.93
2022-07-31T03:42:40.869Z,17.92
2022-07-31T03:45:09.706Z,17.94
2022-07-31T03:47:37.058Z,18.04
2022-07-31T03:50:05.780Z,18.01
2022-07-31T03:52:32.513Z,17.89
2022-07-31T03:54:59.645Z,17.79
2022-07-31T03:57:31.058Z,17.74
2022-07-31T04:00:00.929Z,17.72
2022-07-31T04:02:28.576Z,17.72
2022-07-31T04:04:55.639Z,17.72
2022-07-31T04:07:22.289Z,17.73
2022-07-31T04:09:48.961Z,17.83
2022-07-31T04:12:15.887Z,17.92
2022-07-31T04:14:42.473Z,18.02
2022-07-31T04:17:09.271Z,17.99
2022-07-31T04:19:36.260Z,17.95
2022-07-31T04:22:03.462Z,18.00
2022-07-31T04:24:30.393Z,18.02
2022-07-31T04:26:58.091Z,18.10
2022-07-31T04:29:25.449Z,18.18
2022-07-31T04:31:52.093Z,18.23
2022-07-31T04:34:18.587Z,18.31
2022-07-31T04:36:45.278Z,18.37
2022-07-31T04:39:11.817Z,18.39
2022-07-31T04:41:38.338Z,18.39
2022-07-31T04:44:05.306Z,18.38
2022-07-31T04:46:31.788Z,18.33
2022-07-31T04:48:58.726Z,18.26
2022-07-31T04:51:25.481Z,18.29
2022-07-31T04:53:52.296Z,18.30
2022-07-31T04:56:19.854Z,18.36
2022-07-31T04:58:46.617Z,18.51
2022-07-31T05:01:13.190Z,18.64
2022-07-31T05:03:43.071Z,18.75
2022-07-31T05:06:11.491Z,18.82
2022-07-31T05:08:39.483Z,18.90
2022-07-31T05:11:07.174Z,18.95
2022-07-31T05:13:33.831Z,19.00
2022-07-31T05:16:00.401Z,18.87
2022-07-31T05:18:26.941Z,18.72
2022-07-31T05:20:53.658Z,18.83
2022-07-31T05:23:20.405Z,18.98
2022-07-31T05:25:47.046Z,19.12
2022-07-31T05:28:13.565Z,18.99
2022-07-31T05:30:40.123Z,18.94
2022-07-31T05:33:07.017Z,19.01
2022-07-31T05:35:33.627Z,19.23
2022-07-31T05:38:00.182Z,19.35
2022-07-31T05:40:26.900Z,19.52
2022-07-31T05:42:53.685Z,19.64
2022-07-31T05:45:20.401Z,19.75
2022-07-31T05:47:47.038Z,19.95
2022-07-31T05:50:13.664Z,20.01
2022-07-31T05:52:40.323Z,20.00
2022-07-31T05:55:07.457Z,20.17
2022-07-31T05:57:34.757Z,20.34
2022-07-31T06:00:02.012Z,20.54
2022-07-31T06:02:30.686Z,20.68
2022-07-31T06:04:57.474Z,20.77
2022-07-31T06:07:24.174Z,20.89
2022-07-31T06:09:50.955Z,20.95
2022-07-31T06:12:18.887Z,20.99
2022-07-31T06:14:45.975Z,21.08
2022-07-31T06:17:12.516Z,21.00
2022-07-31T06:19:39.053Z,21.03
2022-07-31T06:22:06.074Z,21.06
2022-07-31T06:24:33.539Z,21.04
2022-07-31T06:27:01.931Z,21.03
2022-07-31T06:29:41.935Z,20.90
2022-07-31T06:32:09.285Z,20.73
2022-07-31T06:34:35.812Z,20.69
2022-07-31T06:37:02.514Z,20.70
2022-07-31T06:39:55.277Z,20.61
2022-07-31T06:42:26.314Z,20.39
2022-07-31T06:44:54.080Z,20.19
2022-07-31T06:47:23.524Z,19.76
2022-07-31T06:49:50.758Z,19.09
2022-07-31T06:52:18.727Z,18.26
2022-07-31T06:54:46.118Z,17.83
2022-07-31T06:57:12.829Z,17.67
2022-07-31T06:59:41.558Z,17.58
2022-07-31T07:02:08.683Z,17.53
2022-07-31T07:04:56.540Z,17.41
2022-07-31T07:07:22.751Z,17.41
2022-07-31T07:09:49.423Z,17.46
2022-07-31T07:12:16.754Z,17.50
2022-07-31T07:14:44.651Z,17.54
2022-07-31T07:17:11.264Z,17.68
2022-07-31T07:19:40.645Z,17.79
2022-07-31T07:22:07.644Z,17.81
2022-07-31T07:24:34.496Z,17.77
2022-07-31T07:27:01.009Z,17.67
2022-07-31T07:29:27.857Z,17.55
2022-07-31T07:31:54.383Z,17.49
2022-07-31T07:34:21.062Z,17.44
2022-07-31T07:36:47.674Z,17.45
2022-07-31T07:39:14.283Z,17.51
2022-07-31T07:41:40.960Z,17.51
2022-07-31T07:44:07.699Z,17.42
2022-07-31T07:46:34.549Z,17.36
2022-07-31T07:49:02.892Z,17.27
2022-07-31T07:51:29.776Z,17.13
2022-07-31T07:53:56.418Z,17.06
2022-07-31T07:56:23.161Z,17.09
2022-07-31T07:58:50.417Z,17.10
2022-07-31T08:01:17.302Z,17.19
2022-07-31T08:03:50.126Z,17.24
2022-07-31T08:06:20.244Z,17.34
2022-07-31T08:08:46.844Z,17.41
2022-07-31T08:11:17.608Z,17.48
2022-07-31T08:13:50.699Z,17.50
2022-07-31T08:16:21.823Z,17.63
2022-07-31T08:18:49.692Z,17.65
2022-07-31T08:21:16.403Z,17.68
2022-07-31T08:23:43.060Z,17.66
2022-07-31T08:26:09.737Z,17.68
2022-07-31T08:28:37.366Z,17.69
2022-07-31T08:31:03.983Z,17.65
2022-07-31T08:33:30.678Z,17.78
2022-07-31T08:35:57.335Z,17.97
2022-07-31T08:38:23.861Z,18.12
2022-07-31T08:40:50.487Z,18.14
2022-07-31T08:44:01.471Z,18.11
2022-07-31T08:46:05.189Z,18.15
2022-07-31T08:48:33.046Z,18.13
2022-07-31T08:51:03.061Z,18.12
2022-07-31T08:53:31.346Z,18.10
2022-07-31T08:55:58.072Z,17.99
2022-07-31T08:58:24.973Z,17.96
2022-07-31T09:00:51.899Z,17.95
2022-07-31T09:03:19.178Z,17.95
2022-07-31T09:05:45.795Z,17.94
2022-07-31T09:08:14.965Z,17.97
2022-07-31T09:10:49.111Z,18.06
2022-07-31T09:13:18.167Z,18.01
2022-07-31T09:15:45.887Z,17.84
2022-07-31T09:18:31.355Z,17.77
2022-07-31T09:21:03.935Z,17.80
2022-07-31T09:23:31.193Z,17.87
2022-07-31T09:26:05.868Z,17.94
2022-07-31T09:28:37.923Z,18.05
2022-07-31T09:31:07.414Z,18.11
2022-07-31T09:33:34.676Z,18.10
2022-07-31T09:36:01.169Z,18.16
2022-07-31T09:38:36.565Z,18.33
2022-07-31T09:41:56.546Z,18.39
2022-07-31T09:44:10.114Z,18.49
2022-07-31T09:46:45.510Z,18.42
2022-07-31T09:49:12.606Z,18.37
2022-07-31T09:51:40.978Z,18.35
2022-07-31T09:54:07.823Z,18.42
2022-07-31T09:56:35.889Z,18.37
2022-07-31T09:59:02.675Z,18.33
2022-07-31T10:01:33.354Z,18.29
2022-07-31T10:04:01.669Z,18.28
2022-07-31T10:06:32.050Z,18.10
2022-07-31T10:09:02.242Z,17.96
2022-07-31T10:11:30.382Z,17.90
2022-07-31T10:14:00.808Z,17.89
2022-07-31T10:16:32.366Z,17.84
2022-07-31T10:19:01.308Z,17.83
2022-07-31T10:21:41.661Z,17.95
2022-07-31T10:24:10.952Z,18.03
2022-07-31T10:29:26.466Z,18.26
2022-07-31T10:31:53.555Z,18.30
2022-07-31T10:34:22.238Z,18.43
2022-07-31T10:36:52.192Z,18.52
2022-07-31T10:39:31.072Z,18.48
2022-07-31T10:42:13.916Z,18.45
2022-07-31T10:44:46.869Z,18.38
2022-07-31T10:47:14.870Z,18.29
2022-07-31T10:49:46.708Z,18.24
2022-07-31T10:52:13.760Z,18.33
2022-07-31T10:54:46.471Z,18.28
2022-07-31T10:57:33.677Z,18.25
2022-07-31T11:00:11.772Z,18.16
2022-07-31T11:02:38.932Z,18.00
2022-07-31T11:05:16.129Z,17.90
2022-07-31T11:07:45.637Z,17.81
2022-07-31T11:10:21.645Z,17.80
2022-07-31T11:13:08.965Z,17.74
2022-07-31T11:15:35.778Z,17.64
2022-07-31T11:18:23.679Z,17.64
2022-07-31T11:21:17.364Z,17.62
2022-07-31T11:23:57.779Z,17.60
2022-07-31T11:26:33.632Z,17.52
2022-07-31T11:30:00.871Z,17.51
2022-07-31T11:31:55.370Z,17.48
2022-07-31T11:34:22.017Z,17.45
2022-07-31T11:36:51.458Z,17.50
2022-07-31T11:39:18.648Z,17.50
2022-07-31T11:41:50.442Z,17.47
2022-07-31T11:44:21.916Z,17.44
2022-07-31T11:46:50.603Z,17.57
2022-07-31T11:49:48.053Z,17.52
2022-07-31T11:52:30.969Z,17.51
2022-07-31T11:55:09.718Z,17.46
2022-07-31T11:57:51.541Z,17.45
2022-07-31T12:00:26.471Z,17.64
2022-07-31T12:02:56.841Z,17.84
2022-07-31T12:05:36.136Z,17.80
2022-07-31T12:08:07.063Z,17.78
2022-07-31T12:10:34.629Z,17.66
2022-07-31T12:13:02.508Z,17.65
2022-07-31T12:15:29.461Z,17.68
2022-07-31T12:18:05.753Z,17.71
2022-07-31T12:20:36.556Z,17.73
2022-07-31T12:23:05.799Z,17.69
2022-07-31T12:25:43.581Z,17.84
2022-07-31T12:28:13.186Z,17.88
2022-07-31T12:30:39.885Z,17.70
2022-07-31T12:33:08.504Z,17.69
2022-07-31T12:35:37.222Z,17.59
2022-07-31T12:38:40.708Z,17.54
2022-07-31T12:41:08.595Z,17.55
2022-07-31T12:43:37.711Z,17.51
2022-07-31T12:46:04.545Z,17.49
2022-07-31T12:48:37.971Z,17.51
2022-07-31T12:51:06.128Z,17.53
2022-07-31T12:53:32.868Z,17.68
2022-07-31T12:55:59.619Z,17.75
2022-07-31T12:58:26.359Z,17.96
2022-07-31T13:00:53.108Z,18.09
2022-07-31T13:03:19.750Z,18.27
2022-07-31T13:05:50.347Z,18.48
2022-07-31T13:08:18.667Z,18.55
2022-07-31T13:10:45.443Z,18.64
2022-07-31T13:13:11.950Z,18.67
2022-07-31T13:15:38.596Z,18.81
2022-07-31T13:18:05.358Z,19.16
2022-07-31T13:20:32.215Z,19.39
2022-07-31T13:22:59.450Z,19.44
2022-07-31T13:25:28.561Z,19.51
2022-07-31T13:27:55.189Z,19.57
2022-07-31T13:30:21.738Z,19.60
2022-07-31T13:32:48.473Z,19.75
2022-07-31T13:35:24.283Z,20.07
2022-07-31T13:37:55.999Z,20.43
2022-07-31T13:40:22.850Z,20.45
2022-07-31T13:42:49.701Z,20.32
2022-07-31T13:45:16.301Z,20.19
2022-07-31T13:47:50.392Z,20.10
2022-07-31T13:50:19.663Z,20.12
2022-07-31T13:52:46.507Z,20.06
2022-07-31T13:55:13.190Z,19.85
2022-07-31T13:57:39.921Z,19.52
2022-07-31T14:00:07.233Z,19.27
2022-07-31T14:02:33.983Z,19.19
2022-07-31T14:05:00.646Z,19.03
2022-07-31T14:07:48.178Z,18.77
2022-07-31T14:10:19.937Z,18.56
2022-07-31T14:12:47.294Z,18.56
2022-07-31T14:15:13.952Z,18.56
2022-07-31T14:17:40.797Z,18.51
2022-07-31T14:20:08.084Z,18.43
2022-07-31T14:22:34.701Z,18.30
2022-07-31T14:25:01.263Z,18.19
2022-07-31T14:27:27.919Z,18.09
2022-07-31T14:29:54.581Z,18.03
2022-07-31T14:32:21.384Z,17.96
2022-07-31T14:34:49.735Z,18.03
2022-07-31T14:37:16.692Z,18.30
2022-07-31T14:39:43.566Z,18.45
2022-07-31T14:42:10.923Z,18.41
2022-07-31T14:44:37.568Z,18.30
2022-07-31T14:47:04.509Z,18.14
2022-07-31T14:50:09.552Z,18.06
2022-07-31T14:52:19.106Z,18.18
2022-07-31T14:54:45.681Z,18.17
2022-07-31T14:57:12.498Z,18.15
2022-07-31T14:59:46.781Z,18.07
2022-07-31T15:02:13.568Z,18.01
2022-07-31T15:04:40.137Z,17.97
2022-07-31T15:07:33.784Z,18.07
2022-07-31T15:09:53.561Z,18.29
2022-07-31T15:12:20.202Z,18.45
2022-07-31T15:14:46.845Z,18.69
2022-07-31T15:17:13.430Z,18.60
2022-07-31T15:19:40.111Z,18.44
2022-07-31T15:22:10.161Z,18.29
2022-07-31T15:24:48.438Z,18.07
2022-07-31T15:27:17.025Z,17.96
2022-07-31T15:30:03.551Z,17.93
2022-07-31T15:32:30.208Z,17.81
2022-07-31T15:34:56.855Z,17.68
2022-07-31T15:37:23.596Z,17.69
2022-07-31T15:40:02.881Z,17.69
2022-07-31T15:42:35.011Z,17.89
2022-07-31T15:45:01.538Z,17.97
2022-07-31T15:47:28.198Z,17.79
2022-07-31T15:49:55.153Z,17.79
2022-07-31T15:52:21.725Z,17.81
2022-07-31T15:54:51.956Z,17.69
2022-07-31T15:57:22.871Z,17.62
2022-07-31T15:59:50.822Z,17.71
2022-07-31T16:02:17.796Z,17.72
2022-07-31T16:04:52.309Z,17.72
2022-07-31T16:08:28.732Z,17.77
2022-07-31T16:10:18.003Z,17.54
2022-07-31T16:12:48.645Z,17.36
2022-07-31T16:15:16.906Z,17.46
2022-07-31T16:17:44.725Z,17.24
2022-07-31T16:20:20.863Z,16.88
2022-07-31T16:22:59.873Z,16.60
2022-07-31T16:25:27.515Z,16.35
2022-07-31T16:27:54.810Z,16.11
2022-07-31T16:30:22.330Z,15.92
2022-07-31T16:32:50.135Z,15.77
2022-07-31T16:35:16.811Z,15.64
2022-07-31T16:37:51.679Z,15.54
2022-07-31T16:40:29.765Z,15.46
2022-07-31T16:43:49.365Z,15.37
2022-07-31T16:45:53.308Z,15.31
2022-07-31T16:48:19.959Z,15.28
2022-07-31T16:50:52.920Z,15.27
2022-07-31T16:54:10.533Z,15.24
2022-07-31T16:56:14.360Z,15.23
2022-07-31T16:58:41.315Z,15.23
2022-07-31T17:01:57.186Z,15.21
2022-07-31T17:04:00.262Z,15.21
2022-07-31T17:06:35.959Z,15.21
2022-07-31T17:09:16.531Z,15.21
2022-07-31T17:11:50.154Z,15.22
2022-07-31T17:14:18.946Z,15.22
2022-07-31T17:16:48.372Z,15.24
2022-07-31T17:19:41.392Z,15.26
2022-07-31T17:22:08.066Z,15.25
2022-07-31T17:24:36.677Z,15.24
2022-07-31T17:27:05.457Z,15.24
2022-07-31T17:29:32.293Z,15.24
2022-07-31T17:31:59.088Z,15.24
2022-07-31T17:34:25.694Z,15.24
2022-07-31T17:36:52.353Z,15.22
2022-07-31T17:39:19.165Z,15.21
2022-07-31T17:41:47.741Z,15.20
2022-07-31T17:44:14.497Z,15.21
2022-07-31T17:46:48.026Z,15.21
2022-07-31T17:49:20.332Z,15.22
2022-07-31T17:52:07.717Z,15.22
2022-07-31T17:54:34.538Z,15.22
2022-07-31T17:57:01.431Z,15.23
2022-07-31T17:59:28.731Z,15.23
2022-07-31T18:01:56.469Z,15.24
2022-07-31T18:04:23.053Z,15.23
2022-07-31T18:06:54.541Z,15.20
2022-07-31T18:09:22.084Z,15.16
2022-07-31T18:11:52.439Z,15.14
2022-07-31T18:14:19.599Z,15.11
2022-07-31T18:16:47.617Z,15.07
2022-07-31T18:19:14.904Z,15.05
2022-07-31T18:21:42.034Z,15.03
2022-07-31T18:24:09.117Z,15.03
2022-07-31T18:26:36.164Z,15.03
2022-07-31T18:29:03.493Z,15.05
2022-07-31T18:31:34.689Z,15.07
2022-07-31T18:34:06.308Z,15.08
2022-07-31T18:36:33.906Z,15.09
2022-07-31T18:39:01.325Z,15.09
2022-07-31T18:41:28.289Z,15.07
2022-07-31T18:43:56.092Z,15.05
2022-07-31T18:46:23.876Z,15.04
2022-07-31T18:48:55.518Z,15.04
2022-07-31T18:51:23.424Z,15.03
2022-07-31T18:53:50.719Z,15.01
2022-07-31T18:56:17.414Z,15.00
2022-07-31T18:58:44.665Z,15.00
2022-07-31T19:01:11.807Z,14.97
2022-07-31T19:03:38.538Z,14.97
2022-07-31T19:06:05.392Z,14.96
2022-07-31T19:08:32.248Z,14.94
2022-07-31T19:10:58.984Z,14.93
2022-07-31T19:13:25.622Z,14.92
2022-07-31T19:15:52.789Z,14.92
2022-07-31T19:18:28.333Z,14.91
2022-07-31T19:21:22.938Z,14.91
2022-07-31T19:23:46.086Z,14.91
2022-07-31T19:26:12.905Z,14.90
2022-07-31T19:28:40.195Z,14.90
2022-07-31T19:31:07.463Z,14.89
2022-07-31T19:33:34.200Z,14.89
2022-07-31T19:36:02.680Z,14.88
2022-07-31T19:38:31.794Z,14.87
2022-07-31T19:40:59.297Z,14.85
2022-07-31T19:43:26.125Z,14.83
2022-07-31T19:46:10.493Z,14.84
2022-07-31T19:48:41.318Z,14.84
2022-07-31T19:51:09.068Z,14.84
2022-07-31T19:53:35.901Z,14.84
2022-07-31T19:56:02.469Z,14.84
2022-07-31T19:58:29.187Z,14.84
2022-07-31T20:00:55.697Z,14.83
2022-07-31T20:03:22.389Z,14.83
2022-07-31T20:05:49.221Z,14.82
2022-07-31T20:08:15.747Z,14.82
2022-07-31T20:10:42.403Z,14.83
2022-07-31T20:13:09.010Z,14.84
2022-07-31T20:15:51.154Z,14.84
2022-07-31T20:18:27.674Z,14.83
2022-07-31T20:21:05.904Z,14.84
2022-07-31T20:23:33.336Z,14.84
2022-07-31T20:26:00.443Z,14.85
2022-07-31T20:28:27.307Z,14.86
2022-07-31T20:30:54.563Z,14.85
2022-07-31T20:33:21.204Z,14.86
2022-07-31T20:35:50.166Z,14.87
2022-07-31T20:38:24.440Z,14.87
2022-07-31T20:40:55.417Z,14.87
2022-07-31T20:43:29.081Z,14.86
2022-07-31T20:45:57.867Z,14.85
2022-07-31T20:48:26.360Z,14.86
2022-07-31T20:50:53.005Z,14.87
2022-07-31T20:53:19.664Z,14.87
2022-07-31T20:55:46.519Z,14.87
2022-07-31T20:58:13.644Z,14.87
2022-07-31T21:00:40.520Z,14.88
2022-07-31T21:03:07.142Z,14.89
2022-07-31T21:05:33.918Z,14.91
2022-07-31T21:08:00.447Z,14.91
2022-07-31T21:10:29.302Z,14.92
2022-07-31T21:12:57.553Z,14.93
2022-07-31T21:15:41.128Z,14.94
2022-07-31T21:18:20.477Z,14.95
2022-07-31T21:20:49.874Z,14.96
2022-07-31T21:23:24.025Z,14.95
2022-07-31T21:25:58.530Z,14.93
2022-07-31T21:28:28.004Z,14.92
2022-07-31T21:30:55.229Z,14.93
2022-07-31T21:33:23.493Z,14.93
2022-07-31T21:35:50.644Z,14.93
2022-07-31T21:38:18.407Z,14.92
2022-07-31T21:40:45.983Z,14.92
2022-07-31T21:43:16.758Z,14.91
2022-07-31T21:45:56.090Z,14.91
2022-07-31T21:48:26.584Z,14.90
2022-07-31T21:50:54.559Z,14.91
2022-07-31T21:53:22.406Z,14.92
2022-07-31T21:55:49.125Z,14.94
2022-07-31T21:58:16.260Z,14.94
2022-07-31T22:00:44.076Z,14.96
2022-07-31T22:03:10.969Z,14.96
2022-07-31T22:05:37.754Z,14.97
2022-07-31T22:08:04.736Z,14.98
2022-07-31T22:10:31.633Z,14.98
2022-07-31T22:12:59.391Z,14.98
2022-07-31T22:15:25.994Z,14.97
2022-07-31T22:18:12.934Z,14.97
2022-07-31T22:20:39.988Z,14.96
2022-07-31T22:23:07.015Z,14.96
2022-07-31T22:25:34.169Z,14.97
2022-07-31T22:28:04.570Z,14.97
2022-07-31T22:30:31.684Z,14.98
2022-07-31T22:33:00.345Z,14.98
2022-07-31T22:35:28.389Z,14.97
2022-07-31T22:37:55.678Z,14.97
2022-07-31T22:40:23.756Z,14.96
2022-07-31T22:42:57.415Z,14.96
2022-07-31T22:45:25.237Z,14.95
2022-07-31T22:47:52.189Z,14.94
2022-07-31T22:50:19.066Z,14.95
2022-07-31T22:52:45.883Z,14.95
2022-07-31T22:55:12.709Z,14.94
2022-07-31T22:57:40.438Z,14.94
2022-07-31T23:00:08.439Z,14.95
2022-07-31T23:02:35.313Z,14.95
2022-07-31T23:05:01.955Z,14.94
2022-07-31T23:07:28.921Z,14.94
2022-07-31T23:09:55.560Z,14.94
2022-07-31T23:12:22.129Z,14.95
2022-07-31T23:14:54.974Z,14.96
2022-07-31T23:17:23.018Z,14.99
2022-07-31T23:19:54.076Z,15.02
2022-07-31T23:22:30.875Z,15.05
2022-07-31T23:25:05.128Z,15.07
2022-07-31T23:27:32.793Z,15.11
2022-07-31T23:30:00.341Z,15.13
2022-07-31T23:32:28.263Z,15.14
2022-07-31T23:34:54.960Z,15.16
2022-07-31T23:37:21.479Z,15.17
2022-07-31T23:39:48.096Z,15.17
2022-07-31T23:42:14.729Z,15.20
2022-07-31T23:44:41.287Z,15.21
2022-07-31T23:47:15.784Z,15.23
2022-07-31T23:49:42.834Z,15.25
2022-07-31T23:52:09.576Z,15.29
2022-07-31T23:54:36.219Z,15.30
2022-07-31T23:57:02.965Z,15.28
2022-07-31T23:59:29.506Z,15.26
